Latest Coastal Weather Observations for Cape Grim

IDV60701

Issued at 7:21 am EDT Thursday 5 March 2015 (issued every 10 minutes, with the page automatically refreshed every 10 minutes)

About coastal observations | Map of coastal stations | Coastal observations for VIC | Marine services | Other Formats
Station Details ID: 091331 Name: CAPE GRIM Lat: -40.68 Lon: 144.69 Height: 86.0 m
Data from the previous 72 hours. | See also: Recent months at Cape Grim
Date/Time
EDT
Temp

°C
Wind Pressure Rain
since 9am
mm
Weather Cloud Vis
km
Sea
Height
m
Swell
Dir
 
Speed
knots
Gust
knots
hPa Trend Height
m
Period
s
Dir
05/07:00am 11.9 SW 37 51 1009.1 - 6.2 - Partly cloudy - - - - -
05/06:30am 11.3 SW 39 50 1008.2 - 6.2 - - - - - - -
05/06:00am 11.2 SW 37 50 1007.1 - 6.2 Recent precip. Mostly cloudy - - - - -
05/05:41am 7.3 SW 41 61 1006.7 - 5.8 - Partly cloudy - - - - -
05/05:30am 11.6 SW 40 51 1006.4 - 5.0 - Partly cloudy - - - - -
05/05:00am 12.0 SW 40 55 1005.6 - 5.0 - Partly cloudy - - - - -
05/04:56am 11.9 SW 40 56 1005.5 - 5.0 - Partly cloudy - - - - -
05/04:48am 11.8 SW 40 56 1005.3 - 5.0 - Partly cloudy - - - - -
05/04:30am 12.3 SW 36 53 1005.1 - 4.6 - Partly cloudy - - - - -
05/04:29am 12.4 SW 37 53 1005.0 - 4.6 - Partly cloudy - - - - -
05/04:26am 12.2 SW 37 52 1004.8 - 4.6 - Partly cloudy - - - - -
05/04:15am 12.2 SW 43 63 1004.6 - 4.6 - Partly cloudy - - - - -
05/04:01am 12.4 SW 42 54 1004.4 - 4.6 - Partly cloudy - - - - -
05/04:00am 12.5 SW 42 54 1004.6 - 4.6 - Partly cloudy - - - - -
05/03:58am 12.0 SW 41 54 1004.5 - 4.6 - Partly cloudy - - - - -
05/03:44am 12.6 SW 36 53 1004.1 - 4.6 - Partly cloudy - - - - -
05/03:38am 12.9 SW 39 53 1004.0 - 4.6 - Partly cloudy - - - - -
05/03:30am 11.9 SW 35 53 1003.9 - 4.6 - Partly cloudy - - - - -
05/03:29am 11.8 WSW 35 55 1003.9 - 4.6 - Partly cloudy - - - - -
05/03:25am 12.1 WSW 34 55 1003.8 - 4.6 - Partly cloudy - - - - -
05/03:21am 12.3 WSW 34 55 1003.5 - 4.6 - Partly cloudy - - - - -
05/03:00am 12.4 WSW 31 50 1003.2 - 4.6 Recent precip. Partly cloudy - - - - -
05/02:32am 11.4 SW 38 51 1003.5 - 4.6 - Partly cloudy - - - - -
05/02:30am 11.5 SW 37 51 1003.4 - 4.6 - Partly cloudy - - - - -
05/02:28am 11.2 SW 36 52 1003.3 - 4.6 - Partly cloudy - - - - -
05/02:00am 11.6 SW 31 45 1003.1 - 4.4 - Partly cloudy - - - - -
05/01:41am 10.3 WSW 41 63 1003.3 - 4.2 - Partly cloudy - - - - -
05/01:35am 11.6 WSW 35 60 1002.8 - 4.2 - Partly cloudy - - - - -
05/01:30am 12.5 WSW 28 52 1002.6 - 4.2 - Partly cloudy - - - - -
05/01:29am 12.6 WSW 28 52 1002.6 - 4.2 - Partly cloudy - - - - -
05/01:15am 12.2 WSW 33 53 1002.8 - 4.2 - Partly cloudy - - - - -
05/01:00am 11.5 WSW 35 56 1002.8 - 4.2 - Partly cloudy - - - - -
05/12:50am 11.5 WSW 31 57 1002.5 - 4.2 - Partly cloudy - - - - -
05/12:48am 11.8 WSW 28 53 1002.2 - 4.2 - Partly cloudy - - - - -
05/12:30am 14.1 W 25 43 1002.1 - 3.8 - Partly cloudy - - - - -
05/12:00am 13.1 W 29 53 1002.1 - 3.8 Recent precip. Mostly clear - - - - -
 
Date/Time
EDT
Temp

°C
Wind Pressure Rain
since 9am
mm
Weather Cloud Vis
km
Sea
Height
m
Swell
Dir
 
Speed
knots
Gust
knots
hPa Trend Height
m
Period
s
Dir
04/11:56pm 14.4 W 31 53 1001.8 - 3.8 - Partly cloudy - - - - -
04/11:30pm 14.5 W 25 41 1002.2 - 3.8 - Partly cloudy - - - - -
04/11:00pm 14.5 W 24 35 1002.4 - 3.6 - Partly cloudy - - - - -
04/10:30pm 13.5 W 24 40 1002.8 - 3.6 - Partly cloudy - - - - -
04/10:00pm 13.6 W 23 35 1003.0 - 2.8 - Partly cloudy - - - - -
04/09:30pm 15.3 W 25 36 1003.4 - 2.8 - Partly cloudy - - - - -
04/09:02pm 15.1 W 21 31 1003.4 - 2.8 - Partly cloudy - - - - -
04/09:00pm 15.0 W 21 30 1003.4 - 2.8 Recent precip. Cloudy - - - - -
04/08:30pm 13.8 W 24 37 1003.6 - 2.8 - Partly cloudy - - - - -
04/08:01pm 15.3 W 24 34 1003.7 - 1.6 - Partly cloudy - - - - -
04/08:00pm 15.6 W 25 34 1003.7 - 1.6 - Partly cloudy - - - - -
04/07:30pm 15.9 WNW 32 42 1003.7 - 1.6 - Partly cloudy - - - - -
04/07:22pm 15.7 WNW 31 42 1003.7 - 1.6 - Partly cloudy - - - - -
04/07:02pm 15.3 WNW 31 37 1004.0 - 1.6 - Partly cloudy - - - - -
04/07:00pm 15.3 WNW 31 39 1004.1 - 1.6 - Partly cloudy - - - - -
04/06:47pm 15.3 W 24 37 1004.4 - 1.6 - Partly cloudy - - - - -
04/06:44pm 15.4 W 24 33 1004.5 - 1.6 - Partly cloudy - - - - -
04/06:30pm 16.1 WNW 25 33 1004.7 - 1.6 - Partly cloudy - - - - -
04/06:00pm 16.5 WNW 24 32 1005.2 - 1.6 - Mostly cloudy - - - - -
04/05:30pm 16.3 W 23 33 1005.7 - 1.6 - Partly cloudy - - - - -
04/05:01pm 15.7 W 22 32 1006.2 - 1.6 - Partly cloudy - - - - -
04/05:00pm 15.7 W 23 32 1006.2 - 1.6 - Partly cloudy - - - - -
04/04:32pm 16.2 WNW 26 37 1006.2 - 1.0 - Partly cloudy - - - - -
04/04:30pm 15.9 WNW 25 33 1006.1 - 1.0 - Partly cloudy - - - - -
04/04:00pm 17.1 W 24 36 1006.6 - 1.0 - Partly cloudy - - - - -
04/03:30pm 15.7 W 20 31 1007.2 - 1.0 - Partly cloudy - - - - -
04/03:27pm 15.1 W 20 30 1007.2 - 1.0 - Partly cloudy - - - - -
04/03:26pm 15.2 W 21 30 1007.3 - 1.0 - Partly cloudy - - - - -
04/03:00pm 14.2 W 21 31 1007.7 - 0.8 Rain Cloudy - - - - -
04/02:46pm 14.9 W 19 30 1007.6 - 0.2 - Partly cloudy - - - - -
04/02:35pm 15.4 W 23 33 1007.6 - 0.2 - Partly cloudy - - - - -
04/02:30pm 17.2 WNW 24 31 1007.5 - 0.0 - Partly cloudy - - - - -
04/02:00pm 18.5 WNW 25 31 1007.9 - 0.0 - Partly cloudy - - - - -
04/01:30pm 18.1 WNW 24 33 1008.0 - 0.0 - Partly cloudy - - - - -
04/01:00pm 18.0 W 24 30 1008.6 - 0.0 - Partly cloudy - - - - -
04/12:30pm 18.0 W 23 30 1009.1 - 0.0 - Partly cloudy - - - - -
04/12:00pm 18.3 WNW 22 27 1009.4 - 0.0 - Mostly cloudy - - - - -
04/11:30am 17.2 WNW 25 35 1009.8 - 0.0 - Partly cloudy - - - - -
04/11:00am 17.1 WNW 23 31 1010.0 - 0.0 - Partly cloudy - - - - -
04/10:30am 16.9 WNW 25 31 1010.2 - 0.0 - Partly cloudy - - - - -
04/10:00am 17.4 W 22 30 1010.4 - 0.0 - Partly cloudy - - - - -
04/09:30am 16.4 W 23 30 1010.3 - 0.0 - Partly cloudy - - - - -
04/09:00am 15.8 WNW 24 29 1010.4 - 0.2 - Mostly cloudy - - - - -
04/08:30am 14.2 WNW 20 25 1010.6 - 0.2 - Partly cloudy - - - - -
04/08:18am 14.4 WNW 28 38 1010.6 - 0.2 - Partly cloudy - - - - -
04/08:00am 16.1 WNW 25 33 1010.0 - 0.2 - Partly cloudy - - - - -
04/07:30am 15.7 W 25 33 1009.9 - 0.2 - Partly cloudy - - - - -
04/07:11am 15.5 WNW 22 33 1009.9 - 0.2 - Partly cloudy - - - - -
04/07:00am 15.2 WNW 21 27 1010.0 - 0.2 - Cloudy - - - - -
04/06:30am 14.9 WNW 23 34 1010.1 - 0.2 - Partly cloudy - - - - -
04/06:23am 15.0 WNW 23 34 1010.2 - 0.2 - Partly cloudy - - - - -
04/06:00am 15.4 W 21 27 1010.2 - 0.2 - Cloudy - - - - -
04/05:30am 15.5 W 22 32 1010.5 - 0.2 - Partly cloudy - - - - -
04/05:01am 15.7 W 22 32 1010.5 - 0.2 - Partly cloudy - - - - -
04/05:00am 15.7 W 23 32 1010.4 - 0.2 - Partly cloudy - - - - -
04/04:31am 15.8 W 22 32 1010.6 - 0.2 - Partly cloudy - - - - -
04/04:30am 15.9 W 22 30 1010.6 - 0.2 - Partly cloudy - - - - -
04/04:04am 15.9 W 25 35 1010.7 - 0.2 - Cloudy - - - - -
04/04:00am 15.9 W 28 35 1010.6 - 0.2 - Partly cloudy - - - - -
04/03:30am 15.3 WNW 24 34 1011.1 - 0.2 - Cloudy - - - - -
04/03:10am 15.7 W 22 32 1011.3 - 0.2 - Cloudy - - - - -
04/03:00am 15.7 W 22 31 1011.6 - 0.2 - Mostly cloudy - - - - -
04/02:32am 15.7 W 21 31 1012.0 - 0.2 - Partly cloudy - - - - -
04/02:30am 15.6 W 22 31 1011.9 - 0.2 - Partly cloudy - - - - -
04/02:00am 15.5 W 18 26 1012.5 - 0.2 - Partly cloudy - - - - -
04/01:30am 15.5 W 17 24 1012.7 - 0.2 - Cloudy - - - - -
04/01:00am 15.5 W 20 32 1013.0 - 0.2 - Partly cloudy - - - - -
04/12:47am 15.5 W 18 28 1013.1 - 0.2 - Partly cloudy - - - - -
04/12:30am 15.2 W 17 23 1013.4 - 0.2 - Cloudy - - - - -
04/12:00am 15.2 W 18 26 1013.6 - 0.2 - Mostly cloudy - - - - -
 
Date/Time
EDT
Temp

°C
Wind Pressure Rain
since 9am
mm
Weather Cloud Vis
km
Sea
Height
m
Swell
Dir
 
Speed
knots
Gust
knots
hPa Trend Height
m
Period
s
Dir
03/11:49pm 15.1 W 18 29 1013.7 - 0.2 - Partly cloudy - - - - -
03/11:30pm 15.1 W 16 22 1013.9 - 0.2 - Partly cloudy - - - - -
03/11:00pm 15.3 W 16 22 1014.1 - 0.2 - Cloudy - - - - -
03/10:30pm 15.3 W 20 28 1014.3 - 0.2 - Partly cloudy - - - - -
03/10:00pm 15.3 W 16 24 1014.3 - 0.2 - Partly cloudy - - - - -
03/09:30pm 15.2 W 14 21 1014.4 - 0.2 - Partly cloudy - - - - -
03/09:00pm 15.2 W 15 21 1014.3 - 0.2 - Cloudy - - - - -
03/08:30pm 15.4 W 12 19 1014.3 - 0.2 - Partly cloudy - - - - -
03/08:00pm 15.5 W 18 24 1014.0 - 0.2 - Partly cloudy - - - - -
03/07:30pm 15.0 WNW 13 17 1014.1 - 0.2 - Partly cloudy - - - - -
03/07:00pm 15.4 WNW 11 15 1014.2 - 0.2 - Partly cloudy - - - - -
03/06:30pm 15.4 W 11 14 1014.3 - 0.2 - Cloudy - - - - -
03/06:00pm 15.5 W 8 13 1014.5 - 0.2 - Cloudy - - - - -
03/05:30pm 15.6 W 10 15 1014.7 - 0.2 - Partly cloudy - - - - -
03/05:00pm 15.7 W 10 15 1014.8 - 0.2 - Partly cloudy - - - - -
03/04:30pm 16.2 W 10 14 1015.0 - 0.2 - Partly cloudy - - - - -
03/04:00pm 16.6 W 10 16 1015.3 - 0.2 - Partly cloudy - - - - -
03/03:30pm 16.6 WSW 9 13 1015.4 - 0.2 - Partly cloudy - - - - -
03/03:00pm 16.6 WSW 9 15 1015.8 - 0.2 - Partly cloudy - - - - -
03/02:30pm 16.8 WSW 9 15 1015.9 - 0.2 - Cloudy - - - - -
03/02:00pm 16.8 WSW 10 16 1016.0 - 0.2 - Partly cloudy - - - - -
03/01:30pm 16.4 SW 11 18 1016.3 - 0.0 - Partly cloudy - - - - -
03/01:00pm 16.8 SW 11 16 1016.4 - 0.0 - Partly cloudy - - - - -
03/12:30pm 17.0 SW 13 16 1016.5 - 0.0 - Partly cloudy - - - - -
03/12:00pm 16.8 WSW 11 16 1016.6 - 0.0 - - - - - - -
03/11:30am 16.6 SW 10 18 1016.6 - 0.0 - Partly cloudy - - - - -
03/11:00am 16.3 SW 13 20 1016.8 - 0.0 - Partly cloudy - - - - -
03/10:30am 16.2 SW 16 20 1016.6 - 0.0 - Partly cloudy - - - - -
03/10:00am 16.0 SW 14 19 1016.4 - 0.0 - - - - - - -
03/09:30am 16.1 SW 12 18 1016.3 - 0.0 - Partly cloudy - - - - -
03/09:00am 15.2 SW 13 20 1016.1 - 0.0 - Cloudy - - - - -
03/08:30am 14.9 SW 11 17 1016.0 - 0.0 - Partly cloudy - - - - -
03/08:00am 14.9 WSW 10 19 1015.5 - 0.0 - Partly cloudy - - - - -
03/07:30am 14.4 SW 13 20 1015.3 - 0.0 - Partly cloudy - - - - -
03/07:00am 14.3 SW 16 27 1015.0 - 0.0 - Partly cloudy - - - - -
03/06:59am 14.5 SW 15 27 1015.0 - 0.0 - Partly cloudy - - - - -
03/06:30am 14.7 WSW 10 16 1014.7 - 0.0 - Partly cloudy - - - - -
03/06:00am 14.6 W 10 16 1014.5 - 0.0 - Mostly cloudy - - - - -
03/05:30am 13.8 SW 11 19 1014.5 - 0.0 - Partly cloudy - - - - -
03/05:00am 14.4 W 15 22 1014.4 - 0.0 - Partly cloudy - - - - -
03/04:30am 14.5 WSW 14 22 1014.3 - 0.0 - Partly cloudy - - - - -
03/04:00am 15.5 W 13 18 1014.2 - 0.0 - Partly cloudy - - - - -
03/03:30am 15.2 W 12 17 1014.0 - 0.0 - Partly cloudy - - - - -
03/03:00am 15.3 W 12 17 1014.1 - 0.0 - - - - - - -
03/02:30am 15.2 W 10 16 1014.5 - 0.0 - - - - - - -
03/02:00am 15.2 W 10 16 1014.7 - 0.0 - Partly cloudy - - - - -
03/01:30am 15.3 WSW 9 18 1015.0 - 0.0 - Partly cloudy - - - - -
03/01:00am 15.3 WSW 9 15 1015.0 - 0.0 - - - - - - -
03/12:30am 15.4 W 9 16 1015.3 - 0.0 - Partly cloudy - - - - -
03/12:00am 15.3 W 11 17 1015.4 - 0.0 - Mostly clear - - - - -
 
Date/Time
EDT
Temp

°C
Wind Pressure Rain
since 9am
mm
Weather Cloud Vis
km
Sea
Height
m
Swell
Dir
 
Speed
knots
Gust
knots
hPa Trend Height
m
Period
s
Dir
02/11:30pm 15.4 W 10 15 1015.6 - 0.0 - Partly cloudy - - - - -
02/11:00pm 15.5 W 13 17 1015.8 - 0.0 - Partly cloudy - - - - -
02/10:30pm 14.7 WNW 10 13 1016.0 - 0.0 - Partly cloudy - - - - -
02/10:00pm 14.7 WNW 9 12 1016.2 - 0.0 - Partly cloudy - - - - -
02/09:30pm 14.5 NW 8 11 1016.0 - 0.0 - Partly cloudy - - - - -
02/09:00pm 14.6 WNW 10 14 1015.9 - 0.0 - Cloudy - - - - -
02/08:30pm 14.5 WNW 9 11 1015.3 - 0.0 - - - - - - -
02/08:00pm 14.5 WNW 9 12 1015.2 - 0.0 - Partly cloudy - - - - -
02/07:30pm 14.6 WNW 8 10 1015.1 - 0.0 - Partly cloudy - - - - -
02/07:00pm 14.7 WNW 10 13 1015.1 - 0.0 - Partly cloudy - - - - -
02/06:30pm 14.7 NW 8 11 1014.8 - 0.0 - - - - - - -
02/06:00pm 14.8 NW 6 9 1014.8 - 0.0 - Cloudy - - - - -
02/05:30pm 14.7 W 8 11 1014.4 - 0.0 - - - - - - -
02/05:00pm 14.7 WNW 7 10 1014.8 - 0.0 - Partly cloudy - - - - -
02/04:30pm 15.3 WNW 7 11 1014.9 - 0.0 - Partly cloudy - - - - -
02/04:00pm 16.0 NW 9 11 1015.4 - 0.0 - - - - - - -
02/03:30pm 15.7 NW 6 9 1015.2 - 0.0 - - - - - - -
02/03:00pm 16.5 NNW 8 11 1015.9 - 0.0 - Mostly clear - - - - -
02/02:30pm 17.0 NW 7 10 1016.5 - 0.0 - Partly cloudy - - - - -
02/02:00pm 16.3 NW 7 10 1016.3 - 0.0 - - - - - - -
02/01:30pm 16.2 W 7 9 1016.4 - 0.0 - - - - - - -
02/01:00pm 16.4 WSW 6 10 1017.1 - 0.0 - Partly cloudy - - - - -
02/12:30pm 15.7 WNW 7 10 1017.6 - 0.0 - Partly cloudy - - - - -
02/12:00pm 15.7 WNW 5 8 1017.7 - 0.0 - Partly cloudy - - - - -
02/11:30am 14.4 WSW 5 7 1017.9 - 0.0 - - - - - - -
02/11:00am 14.1 SW 5 6 1018.4 - 0.0 - - - - - - -
02/10:30am 13.8 SW 3 5 1018.7 - 0.0 - - - - - - -
02/10:00am 13.5 WSW 5 8 1018.7 - 0.0 - - - - - - -
02/09:30am 13.3 SW 7 9 1018.3 - 0.0 - - - - - - -
02/09:00am 13.5 SSE 6 7 1018.1 - 0.0 - - - - - - -
02/08:30am 12.6 SSE 5 6 1018.1 - 0.0 - - - - - - -
02/08:00am 11.4 SSE 5 6 1017.9 - 0.0 - - - - - - -
02/07:30am 10.1 SSE 6 8 1017.6 - 0.0 - - - - - - -

Other Formats:

Comma delimited format used in spreadsheet applications
http://www.bom.gov.au/fwo/IDV60701/IDV60701.95954.axf

JavaScript Object Notation format (JSON) in row-major order
http://www.bom.gov.au/fwo/IDV60701/IDV60701.95954.json